sensor_id;sensor_type;location;lat;lon;timestamp;P1;durP1;ratioP1;P2;durP2;ratioP2
4810;SDS011;2419;51.276;6.472;2023-12-22T00:00:04;3.73;;;1.43;;
4810;SDS011;2419;51.276;6.472;2023-12-22T00:02:34;3.43;;;1.10;;
4810;SDS011;2419;51.276;6.472;2023-12-22T00:05:02;5.90;;;0.97;;
4810;SDS011;2419;51.276;6.472;2023-12-22T00:07:30;10.40;;;1.43;;
4810;SDS011;2419;51.276;6.472;2023-12-22T00:09:58;7.30;;;1.53;;
4810;SDS011;2419;51.276;6.472;2023-12-22T00:12:26;1.37;;;1.27;;
4810;SDS011;2419;51.276;6.472;2023-12-22T00:14:55;7.90;;;1.73;;
4810;SDS011;2419;51.276;6.472;2023-12-22T00:17:24;3.83;;;1.00;;
4810;SDS011;2419;51.276;6.472;2023-12-22T00:19:52;12.67;;;1.53;;
4810;SDS011;2419;51.276;6.472;2023-12-22T00:22:21;6.63;;;1.37;;
4810;SDS011;2419;51.276;6.472;2023-12-22T00:24:51;2.27;;;1.10;;
4810;SDS011;2419;51.276;6.472;2023-12-22T00:27:19;1.43;;;1.07;;
4810;SDS011;2419;51.276;6.472;2023-12-22T00:29:47;1.63;;;1.20;;
4810;SDS011;2419;51.276;6.472;2023-12-22T00:32:15;5.47;;;1.27;;
4810;SDS011;2419;51.276;6.472;2023-12-22T00:34:44;3.80;;;1.17;;
4810;SDS011;2419;51.276;6.472;2023-12-22T00:37:12;6.70;;;1.57;;
4810;SDS011;2419;51.276;6.472;2023-12-22T00:39:40;5.70;;;1.53;;
4810;SDS011;2419;51.276;6.472;2023-12-22T00:42:08;5.03;;;1.70;;
4810;SDS011;2419;51.276;6.472;2023-12-22T00:44:36;7.13;;;1.50;;
4810;SDS011;2419;51.276;6.472;2023-12-22T00:47:06;7.10;;;1.63;;
4810;SDS011;2419;51.276;6.472;2023-12-22T00:49:34;5.80;;;1.20;;
4810;SDS011;2419;51.276;6.472;2023-12-22T00:52:04;7.30;;;1.53;;
4810;SDS011;2419;51.276;6.472;2023-12-22T00:54:32;12.30;;;1.33;;
4810;SDS011;2419;51.276;6.472;2023-12-22T00:57:01;5.13;;;1.40;;
4810;SDS011;2419;51.276;6.472;2023-12-22T00:59:30;6.57;;;1.47;;
4810;SDS011;2419;51.276;6.472;2023-12-22T01:01:58;3.37;;;1.67;;
4810;SDS011;2419;51.276;6.472;2023-12-22T01:04:26;4.43;;;1.37;;
4810;SDS011;2419;51.276;6.472;2023-12-22T01:06:54;4.30;;;1.90;;
4810;SDS011;2419;51.276;6.472;2023-12-22T01:09:24;2.50;;;1.07;;
4810;SDS011;2419;51.276;6.472;2023-12-22T01:11:52;4.83;;;2.10;;
4810;SDS011;2419;51.276;6.472;2023-12-22T01:14:20;5.53;;;1.40;;
4810;SDS011;2419;51.276;6.472;2023-12-22T01:16:48;6.83;;;1.30;;
4810;SDS011;2419;51.276;6.472;2023-12-22T01:19:16;3.43;;;1.47;;
4810;SDS011;2419;51.276;6.472;2023-12-22T01:21:44;9.17;;;1.40;;
4810;SDS011;2419;51.276;6.472;2023-12-22T01:24:15;4.00;;;1.23;;
4810;SDS011;2419;51.276;6.472;2023-12-22T01:26:45;13.87;;;1.60;;
4810;SDS011;2419;51.276;6.472;2023-12-22T01:29:13;2.73;;;1.07;;
4810;SDS011;2419;51.276;6.472;2023-12-22T01:31:41;8.73;;;1.90;;
4810;SDS011;2419;51.276;6.472;2023-12-22T01:34:09;10.33;;;1.60;;
4810;SDS011;2419;51.276;6.472;2023-12-22T01:36:37;8.80;;;1.43;;
4810;SDS011;2419;51.276;6.472;2023-12-22T01:39:05;9.70;;;1.30;;
4810;SDS011;2419;51.276;6.472;2023-12-22T01:41:35;6.00;;;1.53;;
4810;SDS011;2419;51.276;6.472;2023-12-22T01:44:04;5.90;;;1.87;;
4810;SDS011;2419;51.276;6.472;2023-12-22T01:46:32;8.50;;;1.93;;
4810;SDS011;2419;51.276;6.472;2023-12-22T01:49:01;3.93;;;1.73;;
4810;SDS011;2419;51.276;6.472;2023-12-22T01:51:30;7.23;;;1.60;;
4810;SDS011;2419;51.276;6.472;2023-12-22T01:54:00;6.13;;;1.33;;
4810;SDS011;2419;51.276;6.472;2023-12-22T01:56:28;7.97;;;2.07;;
4810;SDS011;2419;51.276;6.472;2023-12-22T01:58:57;4.47;;;1.43;;
4810;SDS011;2419;51.276;6.472;2023-12-22T02:01:28;10.23;;;1.40;;
4810;SDS011;2419;51.276;6.472;2023-12-22T02:03:57;5.43;;;1.07;;
4810;SDS011;2419;51.276;6.472;2023-12-22T02:06:26;3.27;;;1.20;;
4810;SDS011;2419;51.276;6.472;2023-12-22T02:08:57;3.87;;;1.33;;
4810;SDS011;2419;51.276;6.472;2023-12-22T02:11:25;2.80;;;1.40;;
4810;SDS011;2419;51.276;6.472;2023-12-22T02:13:53;7.63;;;1.80;;
4810;SDS011;2419;51.276;6.472;2023-12-22T02:16:23;13.03;;;1.90;;
4810;SDS011;2419;51.276;6.472;2023-12-22T02:18:59;9.13;;;1.70;;
4810;SDS011;2419;51.276;6.472;2023-12-22T02:21:37;9.70;;;2.00;;
4810;SDS011;2419;51.276;6.472;2023-12-22T02:24:35;9.73;;;1.20;;
4810;SDS011;2419;51.276;6.472;2023-12-22T02:27:04;10.17;;;1.80;;
4810;SDS011;2419;51.276;6.472;2023-12-22T02:29:35;8.90;;;1.90;;
4810;SDS011;2419;51.276;6.472;2023-12-22T02:32:06;15.50;;;3.20;;
4810;SDS011;2419;51.276;6.472;2023-12-22T02:34:37;11.13;;;2.07;;
4810;SDS011;2419;51.276;6.472;2023-12-22T02:37:09;12.53;;;2.30;;
4810;SDS011;2419;51.276;6.472;2023-12-22T02:39:40;6.87;;;1.50;;
4810;SDS011;2419;51.276;6.472;2023-12-22T02:42:10;7.83;;;1.97;;
4810;SDS011;2419;51.276;6.472;2023-12-22T02:44:38;7.33;;;1.97;;
4810;SDS011;2419;51.276;6.472;2023-12-22T02:47:06;7.90;;;1.50;;
4810;SDS011;2419;51.276;6.472;2023-12-22T02:49:35;17.00;;;2.57;;
4810;SDS011;2419;51.276;6.472;2023-12-22T02:52:03;9.50;;;1.87;;
4810;SDS011;2419;51.276;6.472;2023-12-22T02:54:31;3.67;;;1.67;;
4810;SDS011;2419;51.276;6.472;2023-12-22T02:57:01;9.67;;;1.67;;
4810;SDS011;2419;51.276;6.472;2023-12-22T02:59:29;7.13;;;2.03;;
4810;SDS011;2419;51.276;6.472;2023-12-22T03:01:57;12.00;;;2.47;;
4810;SDS011;2419;51.276;6.472;2023-12-22T03:04:25;9.43;;;1.73;;
4810;SDS011;2419;51.276;6.472;2023-12-22T03:06:53;8.63;;;1.90;;
4810;SDS011;2419;51.276;6.472;2023-12-22T03:09:22;10.70;;;1.80;;
4810;SDS011;2419;51.276;6.472;2023-12-22T03:11:50;10.40;;;1.70;;
4810;SDS011;2419;51.276;6.472;2023-12-22T03:14:22;4.23;;;1.30;;
4810;SDS011;2419;51.276;6.472;2023-12-22T03:16:50;9.80;;;2.03;;
4810;SDS011;2419;51.276;6.472;2023-12-22T03:19:18;7.53;;;2.07;;
4810;SDS011;2419;51.276;6.472;2023-12-22T03:21:46;13.53;;;2.20;;
4810;SDS011;2419;51.276;6.472;2023-12-22T03:24:15;15.47;;;1.80;;
4810;SDS011;2419;51.276;6.472;2023-12-22T03:26:45;17.47;;;2.53;;
4810;SDS011;2419;51.276;6.472;2023-12-22T03:29:14;11.27;;;2.53;;
4810;SDS011;2419;51.276;6.472;2023-12-22T03:31:43;19.80;;;2.23;;
4810;SDS011;2419;51.276;6.472;2023-12-22T03:34:11;10.80;;;2.30;;
4810;SDS011;2419;51.276;6.472;2023-12-22T03:36:39;10.80;;;1.63;;
4810;SDS011;2419;51.276;6.472;2023-12-22T03:39:08;18.23;;;2.00;;
4810;SDS011;2419;51.276;6.472;2023-12-22T03:41:36;19.03;;;2.20;;
4810;SDS011;2419;51.276;6.472;2023-12-22T03:44:04;11.90;;;2.43;;
4810;SDS011;2419;51.276;6.472;2023-12-22T03:46:32;8.20;;;2.40;;
4810;SDS011;2419;51.276;6.472;2023-12-22T03:49:01;9.40;;;2.23;;
4810;SDS011;2419;51.276;6.472;2023-12-22T03:51:29;7.03;;;1.80;;
4810;SDS011;2419;51.276;6.472;2023-12-22T03:53:58;9.70;;;1.70;;
4810;SDS011;2419;51.276;6.472;2023-12-22T03:56:26;9.40;;;2.10;;
4810;SDS011;2419;51.276;6.472;2023-12-22T03:58:55;11.60;;;2.53;;
4810;SDS011;2419;51.276;6.472;2023-12-22T04:01:23;16.87;;;2.83;;
4810;SDS011;2419;51.276;6.472;2023-12-22T04:03:51;10.73;;;1.57;;
4810;SDS011;2419;51.276;6.472;2023-12-22T04:06:21;8.20;;;2.03;;
4810;SDS011;2419;51.276;6.472;2023-12-22T04:08:49;13.67;;;3.10;;
4810;SDS011;2419;51.276;6.472;2023-12-22T04:11:17;7.93;;;2.03;;
4810;SDS011;2419;51.276;6.472;2023-12-22T04:13:45;8.97;;;1.90;;
4810;SDS011;2419;51.276;6.472;2023-12-22T04:16:13;17.73;;;2.40;;
4810;SDS011;2419;51.276;6.472;2023-12-22T04:18:41;8.40;;;2.07;;
4810;SDS011;2419;51.276;6.472;2023-12-22T04:21:10;5.50;;;1.80;;
4810;SDS011;2419;51.276;6.472;2023-12-22T04:23:39;8.87;;;1.63;;
4810;SDS011;2419;51.276;6.472;2023-12-22T04:26:07;14.20;;;2.10;;
4810;SDS011;2419;51.276;6.472;2023-12-22T04:28:38;18.43;;;2.40;;
4810;SDS011;2419;51.276;6.472;2023-12-22T04:31:06;9.93;;;2.43;;
4810;SDS011;2419;51.276;6.472;2023-12-22T04:33:34;9.23;;;2.50;;
4810;SDS011;2419;51.276;6.472;2023-12-22T04:36:03;5.40;;;1.60;;
4810;SDS011;2419;51.276;6.472;2023-12-22T04:38:31;6.20;;;1.53;;
4810;SDS011;2419;51.276;6.472;2023-12-22T04:41:00;12.50;;;2.60;;
4810;SDS011;2419;51.276;6.472;2023-12-22T04:43:28;10.57;;;2.13;;
4810;SDS011;2419;51.276;6.472;2023-12-22T04:45:57;15.80;;;2.10;;
4810;SDS011;2419;51.276;6.472;2023-12-22T04:48:25;14.77;;;2.07;;
4810;SDS011;2419;51.276;6.472;2023-12-22T04:50:53;13.33;;;2.10;;
4810;SDS011;2419;51.276;6.472;2023-12-22T04:53:21;4.67;;;1.80;;
4810;SDS011;2419;51.276;6.472;2023-12-22T04:55:49;10.30;;;1.80;;
4810;SDS011;2419;51.276;6.472;2023-12-22T04:58:19;4.63;;;1.73;;
4810;SDS011;2419;51.276;6.472;2023-12-22T05:00:47;9.80;;;2.10;;
4810;SDS011;2419;51.276;6.472;2023-12-22T05:03:15;12.93;;;2.10;;
4810;SDS011;2419;51.276;6.472;2023-12-22T05:05:43;10.33;;;1.53;;
4810;SDS011;2419;51.276;6.472;2023-12-22T05:08:12;7.80;;;1.60;;
4810;SDS011;2419;51.276;6.472;2023-12-22T05:10:41;12.60;;;2.30;;
4810;SDS011;2419;51.276;6.472;2023-12-22T05:13:09;5.57;;;1.80;;
4810;SDS011;2419;51.276;6.472;2023-12-22T05:15:38;7.77;;;2.13;;
4810;SDS011;2419;51.276;6.472;2023-12-22T05:18:06;14.00;;;2.07;;
4810;SDS011;2419;51.276;6.472;2023-12-22T05:20:35;19.27;;;2.93;;
4810;SDS011;2419;51.276;6.472;2023-12-22T05:23:03;8.67;;;2.43;;
4810;SDS011;2419;51.276;6.472;2023-12-22T05:25:31;10.50;;;2.00;;
4810;SDS011;2419;51.276;6.472;2023-12-22T05:27:59;5.40;;;1.80;;
4810;SDS011;2419;51.276;6.472;2023-12-22T05:30:27;10.43;;;1.53;;
4810;SDS011;2419;51.276;6.472;2023-12-22T05:32:57;13.57;;;2.57;;
4810;SDS011;2419;51.276;6.472;2023-12-22T05:35:25;9.60;;;1.53;;
4810;SDS011;2419;51.276;6.472;2023-12-22T05:37:53;7.70;;;2.00;;
4810;SDS011;2419;51.276;6.472;2023-12-22T05:40:21;11.83;;;2.57;;
4810;SDS011;2419;51.276;6.472;2023-12-22T05:42:49;7.30;;;1.83;;
4810;SDS011;2419;51.276;6.472;2023-12-22T05:45:17;9.53;;;2.87;;
4810;SDS011;2419;51.276;6.472;2023-12-22T05:47:46;10.43;;;1.70;;
4810;SDS011;2419;51.276;6.472;2023-12-22T05:50:16;14.47;;;2.83;;
4810;SDS011;2419;51.276;6.472;2023-12-22T05:52:44;16.70;;;2.40;;
4810;SDS011;2419;51.276;6.472;2023-12-22T05:55:12;6.47;;;1.87;;
4810;SDS011;2419;51.276;6.472;2023-12-22T05:57:41;12.37;;;2.37;;
4810;SDS011;2419;51.276;6.472;2023-12-22T06:00:09;8.97;;;1.93;;
4810;SDS011;2419;51.276;6.472;2023-12-22T06:02:39;5.43;;;1.93;;
4810;SDS011;2419;51.276;6.472;2023-12-22T06:05:07;11.87;;;1.40;;
4810;SDS011;2419;51.276;6.472;2023-12-22T06:07:37;7.00;;;2.17;;
4810;SDS011;2419;51.276;6.472;2023-12-22T06:10:05;20.10;;;2.43;;
4810;SDS011;2419;51.276;6.472;2023-12-22T06:12:35;12.40;;;2.40;;
4810;SDS011;2419;51.276;6.472;2023-12-22T06:15:04;9.27;;;2.00;;
4810;SDS011;2419;51.276;6.472;2023-12-22T06:17:33;15.10;;;1.90;;
4810;SDS011;2419;51.276;6.472;2023-12-22T06:20:01;14.73;;;1.93;;
4810;SDS011;2419;51.276;6.472;2023-12-22T06:22:29;8.23;;;1.90;;
4810;SDS011;2419;51.276;6.472;2023-12-22T06:25:00;13.00;;;1.90;;
4810;SDS011;2419;51.276;6.472;2023-12-22T06:27:33;9.57;;;2.00;;
4810;SDS011;2419;51.276;6.472;2023-12-22T06:30:01;16.10;;;1.97;;
4810;SDS011;2419;51.276;6.472;2023-12-22T06:32:30;18.23;;;2.20;;
4810;SDS011;2419;51.276;6.472;2023-12-22T06:34:59;10.27;;;2.03;;
4810;SDS011;2419;51.276;6.472;2023-12-22T06:37:27;6.70;;;1.50;;
4810;SDS011;2419;51.276;6.472;2023-12-22T06:39:55;9.47;;;2.07;;
4810;SDS011;2419;51.276;6.472;2023-12-22T06:42:25;6.80;;;1.23;;
4810;SDS011;2419;51.276;6.472;2023-12-22T06:44:54;6.70;;;1.67;;
4810;SDS011;2419;51.276;6.472;2023-12-22T06:47:21;2.43;;;1.73;;
4810;SDS011;2419;51.276;6.472;2023-12-22T06:49:50;2.73;;;1.03;;
4810;SDS011;2419;51.276;6.472;2023-12-22T06:52:19;9.07;;;1.97;;
4810;SDS011;2419;51.276;6.472;2023-12-22T06:54:47;4.50;;;1.97;;
4810;SDS011;2419;51.276;6.472;2023-12-22T06:57:15;6.30;;;1.80;;
4810;SDS011;2419;51.276;6.472;2023-12-22T06:59:46;12.20;;;2.40;;
4810;SDS011;2419;51.276;6.472;2023-12-22T07:02:16;10.30;;;2.47;;
4810;SDS011;2419;51.276;6.472;2023-12-22T07:07:57;10.60;;;2.67;;
4810;SDS011;2419;51.276;6.472;2023-12-22T07:10:25;7.00;;;2.00;;
4810;SDS011;2419;51.276;6.472;2023-12-22T07:12:53;5.77;;;1.67;;
4810;SDS011;2419;51.276;6.472;2023-12-22T07:15:22;11.03;;;1.83;;
4810;SDS011;2419;51.276;6.472;2023-12-22T07:17:50;12.60;;;2.27;;
4810;SDS011;2419;51.276;6.472;2023-12-22T07:20:19;10.37;;;1.80;;
4810;SDS011;2419;51.276;6.472;2023-12-22T07:22:47;7.00;;;1.73;;
4810;SDS011;2419;51.276;6.472;2023-12-22T07:25:15;2.20;;;1.40;;
4810;SDS011;2419;51.276;6.472;2023-12-22T07:27:45;4.70;;;1.33;;
4810;SDS011;2419;51.276;6.472;2023-12-22T07:30:14;4.60;;;1.30;;
4810;SDS011;2419;51.276;6.472;2023-12-22T07:32:45;6.27;;;1.60;;
4810;SDS011;2419;51.276;6.472;2023-12-22T07:35:15;12.43;;;2.33;;
4810;SDS011;2419;51.276;6.472;2023-12-22T07:37:44;11.73;;;2.63;;
4810;SDS011;2419;51.276;6.472;2023-12-22T07:40:13;18.97;;;2.80;;
4810;SDS011;2419;51.276;6.472;2023-12-22T07:42:43;18.87;;;2.97;;
4810;SDS011;2419;51.276;6.472;2023-12-22T07:45:11;13.17;;;2.77;;
4810;SDS011;2419;51.276;6.472;2023-12-22T07:47:40;22.20;;;3.40;;
4810;SDS011;2419;51.276;6.472;2023-12-22T07:50:09;12.70;;;2.60;;
4810;SDS011;2419;51.276;6.472;2023-12-22T07:52:38;17.90;;;3.07;;
4810;SDS011;2419;51.276;6.472;2023-12-22T07:55:08;15.30;;;3.20;;
4810;SDS011;2419;51.276;6.472;2023-12-22T07:57:37;17.30;;;3.60;;
4810;SDS011;2419;51.276;6.472;2023-12-22T08:00:05;23.40;;;3.83;;
4810;SDS011;2419;51.276;6.472;2023-12-22T08:02:39;32.80;;;3.63;;
4810;SDS011;2419;51.276;6.472;2023-12-22T08:05:07;17.73;;;3.93;;
4810;SDS011;2419;51.276;6.472;2023-12-22T08:07:36;17.70;;;3.40;;
4810;SDS011;2419;51.276;6.472;2023-12-22T08:10:05;30.53;;;4.10;;
4810;SDS011;2419;51.276;6.472;2023-12-22T08:12:33;15.20;;;3.13;;
4810;SDS011;2419;51.276;6.472;2023-12-22T08:15:02;24.83;;;4.68;;
4810;SDS011;2419;51.276;6.472;2023-12-22T08:17:30;14.23;;;2.90;;
4810;SDS011;2419;51.276;6.472;2023-12-22T08:19:58;35.23;;;3.67;;
4810;SDS011;2419;51.276;6.472;2023-12-22T08:22:39;18.27;;;3.57;;
4810;SDS011;2419;51.276;6.472;2023-12-22T08:25:11;23.90;;;4.10;;
4810;SDS011;2419;51.276;6.472;2023-12-22T08:27:40;24.88;;;5.03;;
4810;SDS011;2419;51.276;6.472;2023-12-22T08:30:09;18.70;;;3.73;;
4810;SDS011;2419;51.276;6.472;2023-12-22T08:32:37;20.00;;;3.50;;
4810;SDS011;2419;51.276;6.472;2023-12-22T08:35:06;16.13;;;3.07;;
4810;SDS011;2419;51.276;6.472;2023-12-22T08:37:35;26.77;;;3.87;;
4810;SDS011;2419;51.276;6.472;2023-12-22T08:40:06;23.77;;;3.43;;
4810;SDS011;2419;51.276;6.472;2023-12-22T08:42:35;26.97;;;3.60;;
4810;SDS011;2419;51.276;6.472;2023-12-22T08:45:04;23.43;;;4.60;;
4810;SDS011;2419;51.276;6.472;2023-12-22T08:47:32;28.70;;;4.17;;
4810;SDS011;2419;51.276;6.472;2023-12-22T08:50:04;30.97;;;3.70;;
4810;SDS011;2419;51.276;6.472;2023-12-22T08:52:34;19.07;;;3.57;;
4810;SDS011;2419;51.276;6.472;2023-12-22T08:55:02;19.00;;;3.80;;
4810;SDS011;2419;51.276;6.472;2023-12-22T08:57:33;14.03;;;3.20;;
4810;SDS011;2419;51.276;6.472;2023-12-22T09:00:01;27.80;;;4.20;;
4810;SDS011;2419;51.276;6.472;2023-12-22T09:02:30;15.00;;;2.80;;
4810;SDS011;2419;51.276;6.472;2023-12-22T09:04:59;17.13;;;3.63;;
4810;SDS011;2419;51.276;6.472;2023-12-22T09:07:27;22.57;;;3.93;;
4810;SDS011;2419;51.276;6.472;2023-12-22T09:09:55;20.43;;;2.97;;
4810;SDS011;2419;51.276;6.472;2023-12-22T09:12:23;11.40;;;3.50;;
4810;SDS011;2419;51.276;6.472;2023-12-22T09:14:53;15.77;;;3.00;;
4810;SDS011;2419;51.276;6.472;2023-12-22T09:17:21;24.70;;;3.73;;
4810;SDS011;2419;51.276;6.472;2023-12-22T09:19:51;16.17;;;2.67;;
4810;SDS011;2419;51.276;6.472;2023-12-22T09:22:19;21.40;;;3.17;;
4810;SDS011;2419;51.276;6.472;2023-12-22T09:24:47;10.90;;;2.63;;
4810;SDS011;2419;51.276;6.472;2023-12-22T09:27:16;26.60;;;4.23;;
4810;SDS011;2419;51.276;6.472;2023-12-22T09:29:44;23.07;;;3.07;;
4810;SDS011;2419;51.276;6.472;2023-12-22T09:32:13;14.20;;;3.03;;
4810;SDS011;2419;51.276;6.472;2023-12-22T09:34:41;10.13;;;2.70;;
4810;SDS011;2419;51.276;6.472;2023-12-22T09:37:09;13.83;;;2.90;;
4810;SDS011;2419;51.276;6.472;2023-12-22T09:39:37;14.43;;;2.80;;
4810;SDS011;2419;51.276;6.472;2023-12-22T09:42:05;9.47;;;2.03;;
4810;SDS011;2419;51.276;6.472;2023-12-22T09:44:34;8.93;;;2.30;;
4810;SDS011;2419;51.276;6.472;2023-12-22T09:47:06;16.83;;;3.37;;
4810;SDS011;2419;51.276;6.472;2023-12-22T09:49:36;15.17;;;2.23;;
4810;SDS011;2419;51.276;6.472;2023-12-22T09:52:05;9.23;;;2.23;;
4810;SDS011;2419;51.276;6.472;2023-12-22T09:54:34;12.88;;;2.70;;
4810;SDS011;2419;51.276;6.472;2023-12-22T09:57:05;13.30;;;2.30;;
4810;SDS011;2419;51.276;6.472;2023-12-22T09:59:48;6.47;;;1.80;;
4810;SDS011;2419;51.276;6.472;2023-12-22T10:02:18;13.23;;;2.57;;
4810;SDS011;2419;51.276;6.472;2023-12-22T10:04:48;8.13;;;1.87;;
4810;SDS011;2419;51.276;6.472;2023-12-22T10:07:17;8.20;;;2.10;;
4810;SDS011;2419;51.276;6.472;2023-12-22T10:09:45;16.43;;;2.13;;
4810;SDS011;2419;51.276;6.472;2023-12-22T10:12:14;8.73;;;1.67;;
4810;SDS011;2419;51.276;6.472;2023-12-22T10:14:44;8.30;;;1.57;;
4810;SDS011;2419;51.276;6.472;2023-12-22T10:17:12;6.10;;;1.90;;
4810;SDS011;2419;51.276;6.472;2023-12-22T10:19:42;8.80;;;2.00;;
4810;SDS011;2419;51.276;6.472;2023-12-22T10:22:11;4.37;;;1.27;;
4810;SDS011;2419;51.276;6.472;2023-12-22T10:24:40;7.80;;;2.10;;
4810;SDS011;2419;51.276;6.472;2023-12-22T10:27:14;9.87;;;1.90;;
4810;SDS011;2419;51.276;6.472;2023-12-22T10:29:43;2.88;;;1.50;;
4810;SDS011;2419;51.276;6.472;2023-12-22T10:32:11;7.40;;;2.13;;
4810;SDS011;2419;51.276;6.472;2023-12-22T10:34:40;4.23;;;1.50;;
4810;SDS011;2419;51.276;6.472;2023-12-22T10:37:09;6.50;;;1.50;;
4810;SDS011;2419;51.276;6.472;2023-12-22T10:39:39;4.77;;;1.47;;
4810;SDS011;2419;51.276;6.472;2023-12-22T10:42:08;5.43;;;1.27;;
4810;SDS011;2419;51.276;6.472;2023-12-22T10:44:40;7.33;;;1.53;;
4810;SDS011;2419;51.276;6.472;2023-12-22T10:47:09;2.80;;;1.33;;
4810;SDS011;2419;51.276;6.472;2023-12-22T10:49:37;2.20;;;1.60;;
4810;SDS011;2419;51.276;6.472;2023-12-22T10:52:05;6.10;;;1.80;;
4810;SDS011;2419;51.276;6.472;2023-12-22T10:54:35;1.90;;;1.40;;
4810;SDS011;2419;51.276;6.472;2023-12-22T10:57:03;7.90;;;1.70;;
4810;SDS011;2419;51.276;6.472;2023-12-22T10:59:31;2.70;;;1.40;;
4810;SDS011;2419;51.276;6.472;2023-12-22T11:02:06;6.33;;;1.50;;
4810;SDS011;2419;51.276;6.472;2023-12-22T11:04:37;2.50;;;1.30;;
4810;SDS011;2419;51.276;6.472;2023-12-22T11:07:06;2.63;;;1.50;;
4810;SDS011;2419;51.276;6.472;2023-12-22T11:09:38;4.83;;;2.67;;
4810;SDS011;2419;51.276;6.472;2023-12-22T11:12:10;1.20;;;1.07;;
4810;SDS011;2419;51.276;6.472;2023-12-22T11:14:39;4.90;;;1.30;;
4810;SDS011;2419;51.276;6.472;2023-12-22T11:17:07;3.83;;;1.20;;
4810;SDS011;2419;51.276;6.472;2023-12-22T11:19:37;2.97;;;1.17;;
4810;SDS011;2419;51.276;6.472;2023-12-22T11:22:08;7.43;;;2.20;;
4810;SDS011;2419;51.276;6.472;2023-12-22T11:24:39;4.30;;;1.60;;
4810;SDS011;2419;51.276;6.472;2023-12-22T11:27:10;4.33;;;1.20;;
4810;SDS011;2419;51.276;6.472;2023-12-22T11:29:40;2.07;;;1.13;;
4810;SDS011;2419;51.276;6.472;2023-12-22T11:32:08;4.70;;;1.40;;
4810;SDS011;2419;51.276;6.472;2023-12-22T11:34:42;2.00;;;1.20;;
4810;SDS011;2419;51.276;6.472;2023-12-22T11:37:11;2.93;;;1.57;;
4810;SDS011;2419;51.276;6.472;2023-12-22T11:39:42;4.50;;;1.30;;
4810;SDS011;2419;51.276;6.472;2023-12-22T11:42:12;4.87;;;1.50;;
4810;SDS011;2419;51.276;6.472;2023-12-22T11:44:43;4.30;;;1.03;;
4810;SDS011;2419;51.276;6.472;2023-12-22T11:47:11;5.03;;;1.10;;
4810;SDS011;2419;51.276;6.472;2023-12-22T11:49:42;2.70;;;1.50;;
4810;SDS011;2419;51.276;6.472;2023-12-22T11:52:12;1.10;;;1.00;;
4810;SDS011;2419;51.276;6.472;2023-12-22T11:54:46;3.63;;;1.40;;
4810;SDS011;2419;51.276;6.472;2023-12-22T11:57:31;5.00;;;1.20;;
4810;SDS011;2419;51.276;6.472;2023-12-22T12:00:04;3.03;;;1.47;;
4810;SDS011;2419;51.276;6.472;2023-12-22T12:02:39;3.90;;;1.57;;
4810;SDS011;2419;51.276;6.472;2023-12-22T12:05:08;2.87;;;1.13;;
4810;SDS011;2419;51.276;6.472;2023-12-22T12:07:39;3.53;;;1.43;;
4810;SDS011;2419;51.276;6.472;2023-12-22T12:10:12;10.40;;;1.83;;
4810;SDS011;2419;51.276;6.472;2023-12-22T12:13:06;4.10;;;1.40;;
4810;SDS011;2419;51.276;6.472;2023-12-22T12:15:35;2.40;;;1.60;;
4810;SDS011;2419;51.276;6.472;2023-12-22T12:18:04;4.10;;;1.27;;
4810;SDS011;2419;51.276;6.472;2023-12-22T12:20:33;6.93;;;1.40;;
4810;SDS011;2419;51.276;6.472;2023-12-22T12:23:01;2.93;;;1.10;;
4810;SDS011;2419;51.276;6.472;2023-12-22T12:25:32;1.37;;;1.27;;
4810;SDS011;2419;51.276;6.472;2023-12-22T12:28:03;3.30;;;1.87;;
4810;SDS011;2419;51.276;6.472;2023-12-22T12:30:32;2.17;;;1.10;;
4810;SDS011;2419;51.276;6.472;2023-12-22T12:33:06;4.60;;;1.50;;
4810;SDS011;2419;51.276;6.472;2023-12-22T12:35:35;4.50;;;1.20;;
4810;SDS011;2419;51.276;6.472;2023-12-22T12:38:11;7.00;;;1.63;;
4810;SDS011;2419;51.276;6.472;2023-12-22T12:40:40;2.53;;;1.33;;
4810;SDS011;2419;51.276;6.472;2023-12-22T12:43:12;1.23;;;1.10;;
4810;SDS011;2419;51.276;6.472;2023-12-22T12:45:41;2.47;;;1.07;;
4810;SDS011;2419;51.276;6.472;2023-12-22T12:48:09;4.23;;;1.33;;
4810;SDS011;2419;51.276;6.472;2023-12-22T12:50:38;3.23;;;1.23;;
4810;SDS011;2419;51.276;6.472;2023-12-22T12:53:06;8.90;;;1.40;;
4810;SDS011;2419;51.276;6.472;2023-12-22T12:55:34;4.53;;;1.33;;
4810;SDS011;2419;51.276;6.472;2023-12-22T12:58:04;2.60;;;1.23;;
4810;SDS011;2419;51.276;6.472;2023-12-22T13:00:33;2.00;;;1.10;;
4810;SDS011;2419;51.276;6.472;2023-12-22T13:03:03;4.60;;;1.40;;
4810;SDS011;2419;51.276;6.472;2023-12-22T13:05:33;3.87;;;1.70;;
4810;SDS011;2419;51.276;6.472;2023-12-22T13:08:08;2.50;;;1.20;;
4810;SDS011;2419;51.276;6.472;2023-12-22T13:10:38;6.40;;;1.37;;
4810;SDS011;2419;51.276;6.472;2023-12-22T13:13:09;5.23;;;1.80;;
4810;SDS011;2419;51.276;6.472;2023-12-22T13:15:39;9.20;;;2.00;;
4810;SDS011;2419;51.276;6.472;2023-12-22T13:18:08;2.43;;;1.37;;
4810;SDS011;2419;51.276;6.472;2023-12-22T13:20:37;7.57;;;1.27;;
4810;SDS011;2419;51.276;6.472;2023-12-22T13:23:05;5.50;;;1.20;;
4810;SDS011;2419;51.276;6.472;2023-12-22T13:25:37;3.43;;;1.37;;
4810;SDS011;2419;51.276;6.472;2023-12-22T13:28:06;3.00;;;1.13;;
4810;SDS011;2419;51.276;6.472;2023-12-22T13:30:36;2.40;;;1.27;;
4810;SDS011;2419;51.276;6.472;2023-12-22T13:33:07;2.58;;;1.30;;
4810;SDS011;2419;51.276;6.472;2023-12-22T13:35:36;4.60;;;1.50;;
4810;SDS011;2419;51.276;6.472;2023-12-22T13:38:09;3.90;;;1.17;;
4810;SDS011;2419;51.276;6.472;2023-12-22T13:40:38;2.30;;;1.20;;
4810;SDS011;2419;51.276;6.472;2023-12-22T13:43:06;4.00;;;1.30;;
4810;SDS011;2419;51.276;6.472;2023-12-22T13:45:36;4.70;;;1.40;;
4810;SDS011;2419;51.276;6.472;2023-12-22T13:48:04;6.00;;;1.83;;
4810;SDS011;2419;51.276;6.472;2023-12-22T13:50:33;2.80;;;1.20;;
4810;SDS011;2419;51.276;6.472;2023-12-22T13:53:09;4.13;;;1.17;;
4810;SDS011;2419;51.276;6.472;2023-12-22T13:55:37;6.40;;;1.50;;
4810;SDS011;2419;51.276;6.472;2023-12-22T13:58:06;8.47;;;1.77;;
4810;SDS011;2419;51.276;6.472;2023-12-22T14:00:37;4.47;;;1.77;;
4810;SDS011;2419;51.276;6.472;2023-12-22T14:03:07;5.57;;;1.40;;
4810;SDS011;2419;51.276;6.472;2023-12-22T14:05:35;5.93;;;2.23;;
4810;SDS011;2419;51.276;6.472;2023-12-22T14:08:04;7.30;;;1.70;;
4810;SDS011;2419;51.276;6.472;2023-12-22T14:10:32;3.03;;;1.17;;
4810;SDS011;2419;51.276;6.472;2023-12-22T14:13:00;2.60;;;1.20;;
4810;SDS011;2419;51.276;6.472;2023-12-22T14:15:29;7.25;;;1.90;;
4810;SDS011;2419;51.276;6.472;2023-12-22T14:18:11;8.53;;;1.63;;
4810;SDS011;2419;51.276;6.472;2023-12-22T14:20:39;6.80;;;1.70;;
4810;SDS011;2419;51.276;6.472;2023-12-22T14:23:08;4.30;;;1.30;;
4810;SDS011;2419;51.276;6.472;2023-12-22T14:25:40;8.77;;;1.90;;
4810;SDS011;2419;51.276;6.472;2023-12-22T14:28:08;3.30;;;1.40;;
4810;SDS011;2419;51.276;6.472;2023-12-22T14:30:36;4.37;;;1.40;;
4810;SDS011;2419;51.276;6.472;2023-12-22T14:33:04;3.73;;;1.47;;
4810;SDS011;2419;51.276;6.472;2023-12-22T14:35:34;3.67;;;1.50;;
4810;SDS011;2419;51.276;6.472;2023-12-22T14:38:02;5.80;;;1.30;;
4810;SDS011;2419;51.276;6.472;2023-12-22T14:40:31;4.10;;;1.30;;
4810;SDS011;2419;51.276;6.472;2023-12-22T14:42:59;4.03;;;1.27;;
4810;SDS011;2419;51.276;6.472;2023-12-22T14:45:28;7.03;;;1.33;;
4810;SDS011;2419;51.276;6.472;2023-12-22T14:47:56;2.87;;;2.40;;
4810;SDS011;2419;51.276;6.472;2023-12-22T14:50:25;5.87;;;2.00;;
4810;SDS011;2419;51.276;6.472;2023-12-22T14:52:54;9.00;;;2.50;;
4810;SDS011;2419;51.276;6.472;2023-12-22T14:55:22;4.90;;;1.47;;
4810;SDS011;2419;51.276;6.472;2023-12-22T14:57:51;2.07;;;1.10;;
4810;SDS011;2419;51.276;6.472;2023-12-22T15:00:20;3.43;;;1.90;;
4810;SDS011;2419;51.276;6.472;2023-12-22T15:02:48;5.00;;;1.50;;
4810;SDS011;2419;51.276;6.472;2023-12-22T15:05:17;3.37;;;1.20;;
4810;SDS011;2419;51.276;6.472;2023-12-22T15:07:45;6.93;;;1.50;;
4810;SDS011;2419;51.276;6.472;2023-12-22T15:10:15;1.53;;;1.10;;
4810;SDS011;2419;51.276;6.472;2023-12-22T15:12:43;3.93;;;1.40;;
4810;SDS011;2419;51.276;6.472;2023-12-22T15:15:12;2.00;;;1.10;;
4810;SDS011;2419;51.276;6.472;2023-12-22T15:17:40;3.37;;;1.60;;
4810;SDS011;2419;51.276;6.472;2023-12-22T15:20:08;4.90;;;1.50;;
4810;SDS011;2419;51.276;6.472;2023-12-22T15:22:38;6.80;;;1.80;;
4810;SDS011;2419;51.276;6.472;2023-12-22T15:25:07;4.37;;;1.20;;